Terminal Aerodrome Forecast
Issued by NWS

Home | Current Version | Previous Version | Text Only | Print | Product List | Glossary On
Versions: 1 2 3 4 5 6 7 8 9 10 11 12
145
FTUS43 KOAX 202337
TAFSNY
TAF
KSNY 202337Z 2100/2124 31015KT P6SM VCSH BKN040 OVC100
     FM210200 30009KT P6SM BKN050 BKN100
     FM210600 28008KT P6SM SCT250=

USA.gov is the U.S. government's official web portal to all federal, state and local government web resources and services.